Time;durP1;ratioP1;P1;durP2;ratioP2;P2;SDS_P1;SDS_P2;PMS_P1;PMS_P2;Temp;Humidity;BMP_temperature;BMP_pressure;BME280_temperature;BME280_humidity;BME280_pressure;Samples;Min_cycle;Max_cycle;Signal;HPM_P1;HPM_P2
2021/04/25 00:00:08;;;;;;;5.50;2.30;;;14.80;86.30;;;;;;4964626;28;20604;-75
2021/04/25 00:02:36;;;;;;;3.97;2.50;;;14.60;86.40;;;;;;4963895;28;20125;-75
2021/04/25 00:05:05;;;;;;;4.47;2.30;;;14.60;86.60;;;;;;4960339;28;20046;-74
2021/04/25 00:07:33;;;;;;;3.80;2.20;;;14.70;86.50;;;;;;4963942;28;20358;-74
2021/04/25 00:10:01;;;;;;;3.90;2.00;;;14.70;86.20;;;;;;4965016;28;20046;-74
2021/04/25 00:12:30;;;;;;;3.05;2.20;;;14.60;86.60;;;;;;4962082;28;20050;-74
2021/04/25 00:14:58;;;;;;;4.05;2.10;;;14.50;86.30;;;;;;4963711;28;20428;-74
2021/04/25 00:17:27;;;;;;;2.92;2.25;;;14.50;86.30;;;;;;4948449;28;20454;-74
2021/04/25 00:19:55;;;;;;;5.00;2.15;;;14.60;86.10;;;;;;4962801;28;20065;-74
2021/04/25 00:22:23;;;;;;;1.95;1.67;;;14.40;86.20;;;;;;4965344;28;20050;-75
2021/04/25 00:24:51;;;;;;;2.53;1.80;;;14.50;86.10;;;;;;4961056;28;21010;-74
2021/04/25 00:27:19;;;;;;;2.50;1.90;;;14.50;86.10;;;;;;4960983;28;20121;-74
2021/04/25 00:29:47;;;;;;;3.20;1.90;;;14.50;86.30;;;;;;4967786;28;20047;-74
2021/04/25 00:32:15;;;;;;;2.58;2.25;;;14.50;86.10;;;;;;4963536;28;20043;-74
2021/04/25 00:34:44;;;;;;;2.70;1.88;;;14.30;86.70;;;;;;4960976;28;20319;-74
2021/04/25 00:37:11;;;;;;;2.55;1.85;;;14.30;86.80;;;;;;4964140;28;20801;-74
2021/04/25 00:39:39;;;;;;;2.30;1.92;;;14.20;86.80;;;;;;4964831;28;20047;-74
2021/04/25 00:42:07;;;;;;;2.65;1.88;;;14.30;86.80;;;;;;4965711;28;20066;-75
2021/04/25 00:44:35;;;;;;;3.22;1.88;;;14.30;86.90;;;;;;4962794;28;20272;-74
2021/04/25 00:47:03;;;;;;;2.42;2.05;;;14.30;87.00;;;;;;4959966;28;20043;-74
2021/04/25 00:49:31;;;;;;;3.65;2.30;;;14.20;87.70;;;;;;4965387;28;20047;-74
2021/04/25 00:52:01;;;;;;;2.55;2.08;;;14.20;88.10;;;;;;4972644;28;20106;-74
2021/04/25 00:54:29;;;;;;;3.40;2.17;;;14.20;88.40;;;;;;4962669;28;20046;-74
2021/04/25 00:56:58;;;;;;;4.60;2.00;;;14.20;88.30;;;;;;4940222;28;20596;-74
2021/04/25 00:59:27;;;;;;;2.78;1.80;;;14.10;88.40;;;;;;4962416;28;20057;-74
2021/04/25 01:01:55;;;;;;;3.28;2.13;;;14.10;87.60;;;;;;4966936;28;20165;-75
2021/04/25 01:04:24;;;;;;;3.75;1.73;;;14.00;87.20;;;;;;4962377;28;20046;-75
2021/04/25 01:06:51;;;;;;;2.83;1.83;;;14.10;87.50;;;;;;4962203;28;20527;-75
2021/04/25 01:09:21;;;;;;;5.13;1.85;;;14.10;87.50;;;;;;4963948;28;20043;-75
2021/04/25 01:11:49;;;;;;;2.30;1.80;;;14.10;88.10;;;;;;4963992;28;20058;-75
2021/04/25 01:14:17;;;;;;;2.00;1.77;;;14.00;88.20;;;;;;4959298;28;20035;-75
2021/04/25 01:16:45;;;;;;;1.92;1.60;;;13.90;88.50;;;;;;4976189;28;20047;-74
2021/04/25 01:19:13;;;;;;;4.00;1.92;;;13.90;88.10;;;;;;4962915;28;20046;-75
2021/04/25 01:21:42;;;;;;;3.85;1.80;;;13.80;87.90;;;;;;4965393;28;20047;-75
2021/04/25 01:24:11;;;;;;;3.85;2.05;;;13.80;87.90;;;;;;4961446;28;20058;-75
2021/04/25 01:26:39;;;;;;;5.93;3.45;;;13.80;88.00;;;;;;4962235;28;20093;-75
2021/04/25 01:29:07;;;;;;;2.80;2.10;;;13.90;87.50;;;;;;4960136;28;20047;-75
2021/04/25 01:31:35;;;;;;;3.63;1.90;;;13.80;87.60;;;;;;4962236;28;20057;-74
2021/04/25 01:34:03;;;;;;;2.38;2.17;;;13.80;87.80;;;;;;4962300;28;20420;-74
2021/04/25 01:36:31;;;;;;;3.92;1.90;;;13.80;87.60;;;;;;4965845;28;20490;-75
2021/04/25 01:39:01;;;;;;;3.47;2.08;;;13.80;87.80;;;;;;4965710;28;20054;-75
2021/04/25 01:41:29;;;;;;;4.22;2.17;;;13.80;87.50;;;;;;4964126;28;20420;-75
2021/04/25 01:43:58;;;;;;;2.40;2.13;;;13.70;87.50;;;;;;4958899;28;20131;-74
2021/04/25 01:46:26;;;;;;;3.40;2.20;;;13.50;88.10;;;;;;4962922;28;20411;-75
2021/04/25 01:48:54;;;;;;;2.78;2.10;;;13.40;88.70;;;;;;4976355;28;20047;-74
2021/04/25 01:51:22;;;;;;;7.05;2.83;;;13.40;88.90;;;;;;4959150;28;20039;-74
2021/04/25 01:53:50;;;;;;;3.25;2.00;;;13.30;88.90;;;;;;4945564;28;20042;-74
2021/04/25 01:56:19;;;;;;;2.85;2.20;;;13.50;89.10;;;;;;4960241;28;20043;-74
2021/04/25 01:58:47;;;;;;;3.80;2.42;;;13.50;88.70;;;;;;4960249;28;20618;-74
2021/04/25 02:01:15;;;;;;;4.00;2.10;;;13.40;89.10;;;;;;4960606;28;20051;-74
2021/04/25 02:03:43;;;;;;;3.30;2.25;;;13.40;89.20;;;;;;4962162;28;20049;-74
2021/04/25 02:06:12;;;;;;;3.92;2.53;;;13.40;89.10;;;;;;4962943;28;20057;-74
2021/04/25 02:08:40;;;;;;;4.10;2.47;;;13.40;89.20;;;;;;4962226;28;20129;-75
2021/04/25 02:11:08;;;;;;;2.60;2.03;;;13.30;89.10;;;;;;4964515;28;20153;-75
2021/04/25 02:13:37;;;;;;;3.00;2.00;;;13.30;88.90;;;;;;4944663;28;20145;-75
2021/04/25 02:16:06;;;;;;;3.22;1.60;;;13.20;88.80;;;;;;4962067;28;20523;-74
2021/04/25 02:18:34;;;;;;;2.50;1.83;;;13.10;88.80;;;;;;4965449;28;20047;-75
2021/04/25 02:21:02;;;;;;;2.55;1.70;;;13.10;88.90;;;;;;4954648;28;20198;-75
2021/04/25 02:23:30;;;;;;;1.88;1.50;;;13.00;88.70;;;;;;4946334;28;20047;-75
2021/04/25 02:25:58;;;;;;;3.40;1.50;;;13.00;89.00;;;;;;4962652;28;20555;-75
2021/04/25 02:28:26;;;;;;;2.25;1.70;;;13.10;88.90;;;;;;4975649;28;20070;-75
2021/04/25 02:30:55;;;;;;;2.35;1.63;;;13.00;88.80;;;;;;4961689;28;20043;-75
2021/04/25 02:33:23;;;;;;;3.00;1.83;;;12.90;89.10;;;;;;4959767;28;20812;-75
2021/04/25 02:35:51;;;;;;;2.03;1.30;;;12.90;88.90;;;;;;4958910;28;20035;-75
2021/04/25 02:38:19;;;;;;;2.42;1.35;;;13.00;88.90;;;;;;4961941;28;20434;-75
2021/04/25 02:40:47;;;;;;;2.60;1.65;;;13.10;88.20;;;;;;4957505;28;20055;-75
2021/04/25 02:43:17;;;;;;;2.20;1.55;;;13.10;87.90;;;;;;4958230;28;20043;-74
2021/04/25 02:45:45;;;;;;;5.22;2.67;;;12.90;88.30;;;;;;4959995;28;20463;-75
2021/04/25 02:48:14;;;;;;;2.35;1.40;;;12.80;88.60;;;;;;4963999;28;20405;-74
2021/04/25 02:50:43;;;;;;;2.70;1.42;;;12.80;88.70;;;;;;4959904;28;20424;-75
2021/04/25 02:53:12;;;;;;;2.78;1.33;;;12.70;88.90;;;;;;4951652;28;20055;-75
2021/04/25 02:55:40;;;;;;;3.63;2.00;;;12.80;88.50;;;;;;4925402;28;20045;-75
2021/04/25 02:58:09;;;;;;;2.20;1.67;;;12.70;88.70;;;;;;4972053;28;20066;-75
2021/04/25 03:00:38;;;;;;;2.95;2.17;;;12.70;89.00;;;;;;4960197;28;20043;-75
2021/04/25 03:03:06;;;;;;;3.35;2.30;;;12.70;89.30;;;;;;4959406;28;20043;-75
2021/04/25 03:05:35;;;;;;;2.38;2.10;;;12.70;89.20;;;;;;4960413;28;20046;-74
2021/04/25 03:08:03;;;;;;;3.72;2.45;;;12.70;89.40;;;;;;4960020;28;20043;-75
2021/04/25 03:10:31;;;;;;;3.22;2.13;;;12.70;89.40;;;;;;4960793;28;20039;-75
2021/04/25 03:13:00;;;;;;;3.55;2.50;;;12.70;89.70;;;;;;4964205;28;20046;-75
2021/04/25 03:15:28;;;;;;;4.28;2.50;;;12.70;89.90;;;;;;4945378;28;20487;-75
2021/04/25 03:17:55;;;;;;;5.38;2.00;;;12.70;89.90;;;;;;4953857;28;20498;-75
2021/04/25 03:20:24;;;;;;;2.38;1.83;;;12.70;89.90;;;;;;4944262;28;20039;-75
2021/04/25 03:22:53;;;;;;;4.35;2.10;;;12.70;89.90;;;;;;4962720;28;20121;-75
2021/04/25 03:25:21;;;;;;;6.72;2.67;;;12.70;90.10;;;;;;4963325;28;20042;-75
2021/04/25 03:27:49;;;;;;;4.43;1.95;;;12.60;89.80;;;;;;4964383;28;20047;-75
2021/04/25 03:30:19;;;;;;;2.13;1.67;;;12.50;90.30;;;;;;4965409;28;20141;-75
2021/04/25 03:32:47;;;;;;;2.85;2.17;;;12.40;90.40;;;;;;4962097;28;20065;-75
2021/04/25 03:35:17;;;;;;;5.80;1.63;;;12.40;90.40;;;;;;4963738;28;20054;-74
2021/04/25 03:37:46;;;;;;;3.47;1.60;;;12.40;90.30;;;;;;4964413;28;20047;-75
2021/04/25 03:40:17;;;;;;;2.75;1.50;;;12.20;90.50;;;;;;4963243;28;20406;-75
2021/04/25 03:42:45;;;;;;;2.38;1.83;;;12.30;90.50;;;;;;4965458;28;20042;-75
2021/04/25 03:45:14;;;;;;;2.67;1.90;;;12.40;90.30;;;;;;4963987;28;20050;-74
2021/04/25 03:47:44;;;;;;;2.83;1.42;;;12.40;90.10;;;;;;4962836;28;20144;-74
2021/04/25 03:50:14;;;;;;;4.10;1.80;;;12.30;90.40;;;;;;4964000;28;20099;-74
2021/04/25 03:52:43;;;;;;;1.45;1.35;;;12.20;90.30;;;;;;4964928;28;20106;-74
2021/04/25 03:55:13;;;;;;;3.80;1.85;;;12.10;90.60;;;;;;4963457;28;20043;-74
2021/04/25 03:57:42;;;;;;;2.50;1.58;;;12.10;90.60;;;;;;4965189;28;20453;-74
2021/04/25 04:00:12;;;;;;;3.17;1.52;;;12.20;90.40;;;;;;4960213;28;20054;-74
2021/04/25 04:02:40;;;;;;;4.22;1.90;;;12.20;90.30;;;;;;4964826;28;20060;-74
2021/04/25 04:05:09;;;;;;;4.57;1.88;;;12.30;90.20;;;;;;4961736;28;20047;-74
2021/04/25 04:07:37;;;;;;;1.92;1.42;;;12.30;90.10;;;;;;4962861;28;20039;-74
2021/04/25 04:10:07;;;;;;;3.03;1.52;;;12.20;90.10;;;;;;4959986;28;20130;-75
2021/04/25 04:12:34;;;;;;;2.67;1.98;;;12.10;90.80;;;;;;4960718;28;20591;-75
2021/04/25 04:15:04;;;;;;;4.95;2.08;;;12.00;90.80;;;;;;4964409;28;20552;-75
2021/04/25 04:17:32;;;;;;;3.90;2.00;;;12.00;91.20;;;;;;4961502;28;20137;-74
2021/04/25 04:20:00;;;;;;;3.45;1.85;;;11.90;91.10;;;;;;4961050;28;20043;-74
2021/04/25 04:22:28;;;;;;;3.30;1.75;;;11.90;91.40;;;;;;4959232;28;20504;-75
2021/04/25 04:24:56;;;;;;;3.60;1.80;;;11.90;91.60;;;;;;4977632;28;20046;-74
2021/04/25 04:27:24;;;;;;;3.70;2.03;;;11.90;91.40;;;;;;4960546;28;20043;-74
2021/04/25 04:29:52;;;;;;;3.33;1.88;;;11.80;91.80;;;;;;4958170;28;20557;-75
2021/04/25 04:32:21;;;;;;;5.43;2.25;;;11.80;92.10;;;;;;4962114;28;20043;-74
2021/04/25 04:34:55;;;;;;;3.60;2.05;;;11.90;91.90;;;;;;4974480;28;20047;-74
2021/04/25 04:37:23;;;;;;;3.85;1.98;;;11.80;92.30;;;;;;4960889;28;20102;-74
2021/04/25 04:39:50;;;;;;;5.72;1.92;;;11.90;92.20;;;;;;4975570;28;20524;-74
2021/04/25 04:42:19;;;;;;;2.88;2.15;;;12.10;91.80;;;;;;4941033;28;20046;-74
2021/04/25 04:44:47;;;;;;;2.70;1.90;;;12.10;91.70;;;;;;4965067;28;20133;-74
2021/04/25 04:47:15;;;;;;;4.22;2.10;;;12.00;91.90;;;;;;4962004;28;20055;-74
2021/04/25 04:49:44;;;;;;;4.03;2.40;;;11.90;92.20;;;;;;4953725;28;20042;-75
2021/04/25 04:52:13;;;;;;;4.72;2.38;;;11.90;92.70;;;;;;4962475;28;20490;-75
2021/04/25 04:54:41;;;;;;;4.35;2.05;;;11.90;92.50;;;;;;4962965;28;20041;-75
2021/04/25 04:57:09;;;;;;;4.18;2.40;;;12.00;92.50;;;;;;4960606;28;20057;-75
2021/04/25 04:59:37;;;;;;;5.43;2.60;;;12.00;92.70;;;;;;4960151;28;20062;-75
2021/04/25 05:02:05;;;;;;;3.08;2.47;;;12.00;92.50;;;;;;4962172;28;20082;-75
2021/04/25 05:04:32;;;;;;;5.40;2.17;;;12.10;92.70;;;;;;4962035;28;20428;-75
2021/04/25 05:07:02;;;;;;;3.53;2.55;;;12.20;92.20;;;;;;4971865;28;20051;-75
2021/04/25 05:09:30;;;;;;;3.28;2.40;;;12.30;92.00;;;;;;4960824;28;20062;-75
2021/04/25 05:11:58;;;;;;;2.53;1.92;;;12.30;92.10;;;;;;4961823;28;20142;-75
2021/04/25 05:14:26;;;;;;;2.80;2.35;;;12.20;92.20;;;;;;4961577;28;20138;-75
2021/04/25 05:16:54;;;;;;;2.90;2.20;;;12.20;92.20;;;;;;4961734;28;20105;-74
2021/04/25 05:19:22;;;;;;;4.13;2.60;;;12.10;92.80;;;;;;4962567;28;20045;-75
2021/04/25 05:21:50;;;;;;;5.35;2.20;;;12.20;92.80;;;;;;4958623;28;20058;-75
2021/04/25 05:24:19;;;;;;;2.58;2.25;;;12.40;92.40;;;;;;4957505;28;20038;-75
2021/04/25 05:26:47;;;;;;;2.60;2.25;;;12.50;92.00;;;;;;4959618;28;20070;-75
2021/04/25 05:29:15;;;;;;;3.40;2.90;;;12.40;92.00;;;;;;4961346;28;20054;-75
2021/04/25 05:31:44;;;;;;;4.60;3.00;;;12.40;92.10;;;;;;4960418;28;20109;-75
2021/04/25 05:34:12;;;;;;;3.83;2.88;;;12.40;92.30;;;;;;4962326;28;20039;-75
2021/04/25 05:36:40;;;;;;;4.00;2.88;;;12.40;92.30;;;;;;4961662;28;20042;-75
2021/04/25 05:39:08;;;;;;;3.15;2.55;;;12.40;92.40;;;;;;4962785;28;20043;-75
2021/04/25 05:41:37;;;;;;;4.28;2.65;;;12.40;92.20;;;;;;4963628;28;20066;-75
2021/04/25 05:44:05;;;;;;;7.85;3.33;;;12.50;92.00;;;;;;4959128;28;20046;-75
2021/04/25 05:46:33;;;;;;;5.35;3.85;;;12.50;92.20;;;;;;4961688;28;20046;-75
2021/04/25 05:49:02;;;;;;;4.22;3.33;;;12.40;92.40;;;;;;4961260;28;20588;-75
2021/04/25 05:51:31;;;;;;;4.57;3.28;;;12.50;92.30;;;;;;4961632;28;20075;-75
2021/04/25 05:53:58;;;;;;;4.13;3.17;;;12.50;92.30;;;;;;4959477;28;20134;-74
2021/04/25 05:56:27;;;;;;;6.68;3.80;;;12.40;92.40;;;;;;4960197;28;20173;-75
2021/04/25 05:58:57;;;;;;;4.53;3.10;;;12.40;92.70;;;;;;4961678;28;20046;-75
2021/04/25 06:01:25;;;;;;;3.75;3.33;;;12.40;92.80;;;;;;4961509;28;20031;-74
2021/04/25 06:03:53;;;;;;;6.50;3.88;;;12.60;92.40;;;;;;4960217;28;20051;-74
2021/04/25 06:06:21;;;;;;;4.15;3.58;;;12.70;92.30;;;;;;4960038;28;20037;-75
2021/04/25 06:08:49;;;;;;;4.43;3.60;;;12.70;92.30;;;;;;4962072;28;20050;-75
2021/04/25 06:11:17;;;;;;;5.53;3.88;;;12.70;92.70;;;;;;4945221;28;20503;-75
2021/04/25 06:13:45;;;;;;;6.35;4.70;;;12.60;92.70;;;;;;4958364;28;20497;-75
2021/04/25 06:16:14;;;;;;;7.75;4.22;;;12.80;92.80;;;;;;4963223;28;20086;-75
2021/04/25 06:18:42;;;;;;;4.57;4.10;;;12.80;92.50;;;;;;4973574;28;20039;-74
2021/04/25 06:21:10;;;;;;;5.10;3.95;;;12.90;92.60;;;;;;4962246;28;20422;-75
2021/04/25 06:23:39;;;;;;;4.78;3.60;;;13.00;92.50;;;;;;4959123;28;20047;-75
2021/04/25 06:26:07;;;;;;;6.97;3.95;;;13.10;92.10;;;;;;4958383;28;20055;-75
2021/04/25 06:28:35;;;;;;;5.05;4.03;;;13.20;92.00;;;;;;4957599;28;20050;-75
2021/04/25 06:31:04;;;;;;;5.40;3.97;;;13.20;92.20;;;;;;4962127;28;20513;-75
2021/04/25 06:33:33;;;;;;;5.93;4.10;;;13.20;91.60;;;;;;4958580;28;20045;-75
2021/04/25 06:36:01;;;;;;;6.07;4.28;;;13.40;91.50;;;;;;4960963;28;20046;-75
2021/04/25 06:38:29;;;;;;;5.97;4.68;;;13.40;91.30;;;;;;4960015;28;20269;-75
2021/04/25 06:40:57;;;;;;;7.82;5.05;;;13.40;91.50;;;;;;4981435;28;20046;-75
2021/04/25 06:43:25;;;;;;;6.50;4.38;;;13.40;91.50;;;;;;4965733;28;20122;-75
2021/04/25 06:45:53;;;;;;;6.93;4.57;;;13.60;91.70;;;;;;4961287;28;20039;-75
2021/04/25 06:48:21;;;;;;;6.65;4.43;;;13.80;91.10;;;;;;4959059;28;20047;-75
2021/04/25 06:50:50;;;;;;;6.55;5.00;;;13.90;91.30;;;;;;4958711;28;20053;-75
2021/04/25 06:53:18;;;;;;;10.07;5.43;;;13.90;91.30;;;;;;4959670;28;20105;-75
2021/04/25 06:55:46;;;;;;;7.03;5.50;;;13.90;91.80;;;;;;4960708;28;20039;-75
2021/04/25 06:58:14;;;;;;;8.55;5.60;;;13.90;91.70;;;;;;4957978;28;20415;-75
2021/04/25 07:00:42;;;;;;;7.88;5.30;;;14.00;92.10;;;;;;4962007;28;20051;-75
2021/04/25 07:03:10;;;;;;;6.20;4.82;;;14.10;91.70;;;;;;4963301;28;20051;-75
2021/04/25 07:05:39;;;;;;;5.82;5.15;;;14.20;91.70;;;;;;4964576;28;20110;-75
2021/04/25 07:08:08;;;;;;;6.60;5.18;;;14.20;91.80;;;;;;4966374;28;20186;-75
2021/04/25 07:10:36;;;;;;;6.80;5.05;;;14.30;91.90;;;;;;4962866;28;20047;-75
2021/04/25 07:13:04;;;;;;;9.18;5.70;;;14.40;91.80;;;;;;4980632;28;20924;-75
2021/04/25 07:15:32;;;;;;;7.40;6.55;;;14.50;91.50;;;;;;4964957;28;20494;-75
2021/04/25 07:18:01;;;;;;;8.38;6.22;;;14.50;91.30;;;;;;4940162;28;20181;-75
2021/04/25 07:20:29;;;;;;;8.38;5.28;;;14.50;91.40;;;;;;4963709;28;20581;-75
2021/04/25 07:22:57;;;;;;;7.78;5.10;;;14.60;91.20;;;;;;4966657;28;20054;-75
2021/04/25 07:25:26;;;;;;;8.02;5.05;;;14.60;91.10;;;;;;4978080;28;20398;-74
2021/04/25 07:27:54;;;;;;;5.93;4.05;;;14.70;90.90;;;;;;4962869;28;20066;-75
2021/04/25 07:30:23;;;;;;;5.15;3.83;;;14.80;89.90;;;;;;4962653;28;20126;-75
2021/04/25 07:32:53;;;;;;;5.22;3.97;;;15.00;89.60;;;;;;4963472;28;20074;-75
2021/04/25 07:35:21;;;;;;;4.22;3.83;;;15.00;89.30;;;;;;4961915;28;20145;-75
2021/04/25 07:37:49;;;;;;;4.20;3.70;;;15.00;89.60;;;;;;4967926;28;20039;-75
2021/04/25 07:40:18;;;;;;;5.88;3.90;;;15.20;89.40;;;;;;4961634;28;20042;-75
2021/04/25 07:42:47;;;;;;;4.85;3.50;;;15.30;88.70;;;;;;4962979;28;20038;-75
2021/04/25 07:45:15;;;;;;;5.32;3.22;;;15.30;87.40;;;;;;4976353;28;20047;-75
2021/04/25 07:47:44;;;;;;;5.32;3.58;;;15.40;86.70;;;;;;4964931;28;20042;-75
2021/04/25 07:50:16;;;;;;;4.90;3.47;;;15.50;86.10;;;;;;4959719;28;20323;-75
2021/04/25 07:52:44;;;;;;;4.95;3.70;;;15.60;86.00;;;;;;4962515;28;20039;-75
2021/04/25 07:55:12;;;;;;;5.38;3.88;;;15.70;85.60;;;;;;4964229;28;20043;-75
2021/04/25 07:57:40;;;;;;;6.22;4.38;;;15.70;85.10;;;;;;4962885;28;20050;-75
2021/04/25 08:00:16;;;;;;;9.23;4.38;;;15.80;85.40;;;;;;4963489;28;20058;-75
2021/04/25 08:02:44;;;;;;;8.32;5.10;;;15.90;85.70;;;;;;4961885;28;20042;-75
2021/04/25 08:05:12;;;;;;;5.47;4.03;;;16.00;86.30;;;;;;4941758;28;20046;-75
2021/04/25 08:07:40;;;;;;;6.88;4.13;;;16.10;85.60;;;;;;4943588;28;20061;-75
2021/04/25 08:10:09;;;;;;;4.50;3.30;;;16.10;84.50;;;;;;4962539;28;20049;-75
2021/04/25 08:12:37;;;;;;;5.20;3.35;;;16.10;84.90;;;;;;4964158;28;20448;-75
2021/04/25 08:15:06;;;;;;;4.88;3.67;;;16.20;85.10;;;;;;4965402;28;20299;-75
2021/04/25 08:17:36;;;;;;;5.78;3.35;;;16.20;84.60;;;;;;4964200;28;20047;-75
2021/04/25 08:20:05;;;;;;;4.60;3.13;;;16.30;84.60;;;;;;4963299;28;20027;-75
2021/04/25 08:22:33;;;;;;;4.30;3.55;;;16.40;84.10;;;;;;4962920;28;20054;-75
2021/04/25 08:25:01;;;;;;;4.13;3.58;;;16.40;84.20;;;;;;4962137;28;20074;-75
2021/04/25 08:27:29;;;;;;;6.13;3.58;;;16.50;83.40;;;;;;4959700;28;20145;-75
2021/04/25 08:29:57;;;;;;;5.60;3.47;;;16.60;83.00;;;;;;4963449;28;20047;-75
2021/04/25 08:32:25;;;;;;;6.13;3.13;;;16.70;82.70;;;;;;4962474;28;20043;-75
2021/04/25 08:34:54;;;;;;;5.97;3.30;;;16.80;81.90;;;;;;4962350;28;20043;-76
2021/04/25 08:37:22;;;;;;;4.95;3.20;;;16.90;81.70;;;;;;4950728;28;20097;-76
2021/04/25 08:39:50;;;;;;;5.60;3.55;;;17.00;81.50;;;;;;4965053;28;20483;-76
2021/04/25 08:42:18;;;;;;;3.67;2.85;;;17.10;81.50;;;;;;4961916;28;20542;-76
2021/04/25 08:44:47;;;;;;;3.33;2.55;;;17.10;80.80;;;;;;4956794;28;20045;-75
2021/04/25 08:47:15;;;;;;;4.57;2.38;;;17.10;80.30;;;;;;4944475;28;20050;-74
2021/04/25 08:49:47;;;;;;;4.50;2.30;;;17.20;79.50;;;;;;4958473;28;20054;-76
2021/04/25 08:52:19;;;;;;;4.32;2.50;;;17.40;78.70;;;;;;4961264;28;20042;-75
2021/04/25 08:54:48;;;;;;;2.60;1.67;;;17.40;78.30;;;;;;4960937;28;20055;-75
2021/04/25 08:57:16;;;;;;;2.80;1.85;;;17.50;77.20;;;;;;4962226;28;20054;-76
2021/04/25 08:59:44;;;;;;;3.33;2.15;;;17.70;76.80;;;;;;4961314;28;20161;-76
2021/04/25 09:02:12;;;;;;;4.32;2.55;;;17.90;77.20;;;;;;4961415;28;20034;-76
2021/04/25 09:04:40;;;;;;;3.45;2.25;;;18.10;76.60;;;;;;4961225;28;20470;-75
2021/04/25 09:07:14;;;;;;;4.65;2.35;;;18.20;75.70;;;;;;4959514;28;20034;-75
2021/04/25 09:09:46;;;;;;;2.75;2.00;;;18.30;75.50;;;;;;4955643;28;20046;-73
2021/04/25 09:12:30;;;;;;;4.35;2.30;;;18.30;75.30;;;;;;4961102;28;20074;-73
2021/04/25 09:14:58;;;;;;;3.33;2.42;;;18.30;75.80;;;;;;4960557;28;20047;-73
2021/04/25 09:17:26;;;;;;;4.40;2.47;;;18.40;76.40;;;;;;4974864;28;20116;-74
2021/04/25 09:19:57;;;;;;;5.07;2.58;;;18.40;75.20;;;;;;4957396;28;20434;-74
2021/04/25 09:22:43;;;;;;;5.47;2.35;;;18.50;72.80;;;;;;4961257;28;20115;-74
2021/04/25 09:25:15;;;;;;;2.75;1.98;;;18.60;73.40;;;;;;4959202;28;20082;-74
2021/04/25 09:27:44;;;;;;;4.80;2.78;;;18.60;73.80;;;;;;4964939;28;20134;-74
2021/04/25 09:30:19;;;;;;;2.88;2.25;;;18.70;73.60;;;;;;4966176;28;20057;-75
2021/04/25 09:32:47;;;;;;;3.90;2.33;;;18.80;73.50;;;;;;4962426;28;20497;-75
2021/04/25 09:35:17;;;;;;;3.10;2.70;;;18.90;74.00;;;;;;4958869;28;20061;-76
2021/04/25 09:37:47;;;;;;;4.10;2.80;;;18.90;74.00;;;;;;4962236;28;20051;-74
2021/04/25 09:40:18;;;;;;;5.57;2.90;;;19.00;73.40;;;;;;4960970;28;20089;-76
2021/04/25 09:43:00;;;;;;;4.63;2.60;;;19.10;73.60;;;;;;4962576;28;20042;-74
2021/04/25 09:45:29;;;;;;;3.35;3.05;;;19.10;73.30;;;;;;4959615;28;20043;-74
2021/04/25 09:47:58;;;;;;;26.63;17.30;;;19.30;73.90;;;;;;4960747;28;20114;-74
2021/04/25 09:50:27;;;;;;;10.10;6.65;;;19.40;74.10;;;;;;4960240;28;20102;-74
2021/04/25 09:52:54;;;;;;;5.70;4.28;;;19.40;73.80;;;;;;4961748;28;20039;-75
2021/04/25 09:55:26;;;;;;;8.25;3.50;;;19.50;73.10;;;;;;4959825;28;20134;-75
2021/04/25 09:57:56;;;;;;;5.68;3.20;;;19.50;73.10;;;;;;4962238;28;20043;-75
2021/04/25 10:00:37;;;;;;;5.47;3.00;;;19.60;72.60;;;;;;4960424;28;20138;-75
2021/04/25 10:03:12;;;;;;;4.30;2.95;;;19.70;73.50;;;;;;4959972;28;20702;-75
2021/04/25 10:05:56;;;;;;;4.80;3.78;;;19.90;74.00;;;;;;4973393;28;20055;-75
2021/04/25 10:08:28;;;;;;;4.43;3.10;;;20.00;74.00;;;;;;4959591;28;20058;-75
2021/04/25 10:11:04;;;;;;;4.65;3.40;;;20.00;74.00;;;;;;4958903;28;20046;-75
2021/04/25 10:13:34;;;;;;;7.30;4.43;;;20.10;73.40;;;;;;4960318;28;20042;-75
2021/04/25 10:16:01;;;;;;;7.05;5.22;;;20.10;74.20;;;;;;4971601;28;20078;-75
2021/04/25 10:18:29;;;;;;;20.13;13.55;;;20.30;73.20;;;;;;4973431;28;20539;-75
2021/04/25 10:20:57;;;;;;;11.13;7.60;;;20.40;73.60;;;;;;4960551;28;20043;-73
2021/04/25 10:23:26;;;;;;;8.73;6.25;;;20.50;73.60;;;;;;4961320;28;20038;-74
2021/04/25 10:25:54;;;;;;;10.63;7.60;;;20.60;73.20;;;;;;4960564;28;20045;-74
2021/04/25 10:28:29;;;;;;;21.67;15.73;;;20.70;72.50;;;;;;4944020;28;20525;-74
2021/04/25 10:31:01;;;;;;;9.02;7.07;;;20.90;74.10;;;;;;4956430;28;20074;-74
2021/04/25 10:33:52;;;;;;;6.82;4.20;;;21.00;73.80;;;;;;4965362;28;20067;-74
2021/04/25 10:36:19;;;;;;;13.98;9.95;;;21.10;72.60;;;;;;4964310;28;20524;-79
2021/04/25 10:38:48;;;;;;;22.17;17.10;;;21.20;73.30;;;;;;4961999;28;20849;-75
2021/04/25 10:41:23;;;;;;;5.32;4.78;;;21.30;73.40;;;;;;4967738;28;20090;-74
2021/04/25 10:44:00;;;;;;;7.78;3.90;;;21.40;73.20;;;;;;4963191;28;20049;-75
2021/04/25 10:47:03;;;;;;;4.68;3.33;;;21.40;72.30;;;;;;4949633;28;20066;-74
2021/04/25 10:49:32;;;;;;;5.20;2.92;;;21.60;71.30;;;;;;4967769;28;20051;-75
2021/04/25 10:52:31;;;;;;;4.53;2.22;;;21.70;71.60;;;;;;4963407;28;20130;-75
2021/04/25 10:55:31;;;;;;;6.50;3.58;;;21.70;70.70;;;;;;4904770;29;20040;-75
2021/04/25 10:58:22;;;;;;;5.22;2.60;;;21.80;70.20;;;;;;4888506;29;20151;-75
2021/04/25 11:00:50;;;;;;;4.63;2.40;;;22.00;68.60;;;;;;4900455;29;20048;-74
2021/04/25 11:03:40;;;;;;;4.90;3.08;;;22.00;69.80;;;;;;4903562;29;20560;-75
2021/04/25 11:06:27;;;;;;;5.40;3.22;;;22.00;69.10;;;;;;4904141;29;20146;-74
2021/04/25 11:08:55;;;;;;;;;;;22.20;68.20;;;;;;4905365;29;20083;-80
2021/04/25 11:11:31;;;;;;;4.18;3.15;;;22.30;68.00;;;;;;4886138;29;19943;-81
2021/04/25 11:14:00;;;;;;;4.88;2.50;;;22.40;67.80;;;;;;4899166;29;20159;-83
2021/04/25 11:16:30;;;;;;;6.07;2.80;;;22.40;65.70;;;;;;4842194;29;20054;-79
2021/04/25 11:19:01;;;;;;;5.18;2.85;;;22.50;68.60;;;;;;4857789;29;20586;-80
2021/04/25 11:21:53;;;;;;;6.80;3.03;;;22.50;68.90;;;;;;4870788;29;20052;-77
2021/04/25 11:24:31;;;;;;;4.68;2.65;;;22.50;69.10;;;;;;4879464;29;20211;-81
2021/04/25 11:27:02;;;;;;;3.15;2.17;;;22.40;69.00;;;;;;4871755;29;20486;-78
2021/04/25 11:29:52;;;;;;;4.35;2.75;;;22.50;69.40;;;;;;4933785;28;20141;-79
2021/04/25 11:32:32;;;;;;;5.03;2.70;;;22.50;68.70;;;;;;4961629;28;20523;-79
2021/04/25 11:35:04;;;;;;;4.10;2.60;;;22.70;69.90;;;;;;4947174;28;20117;-83
2021/04/25 11:37:34;;;;;;;4.50;2.60;;;22.70;68.60;;;;;;4963280;28;20093;-84
2021/04/25 11:40:07;;;;;;;3.47;2.20;;;23.00;69.50;;;;;;4953715;28;20070;-75
2021/04/25 11:42:49;;;;;;;5.28;2.63;;;23.00;70.50;;;;;;4962975;28;20509;-76
2021/04/25 11:45:26;;;;;;;3.63;2.15;;;23.00;70.40;;;;;;4962841;28;20615;-78
2021/04/25 11:47:57;;;;;;;4.72;2.65;;;23.00;70.00;;;;;;4964131;28;20070;-79
2021/04/25 11:50:30;;;;;;;5.63;2.85;;;22.90;68.70;;;;;;4961006;28;20225;-80
2021/04/25 11:52:58;;;;;;;3.20;2.35;;;22.70;69.40;;;;;;4962503;28;20242;-80
2021/04/25 11:55:27;;;;;;;4.28;2.40;;;22.90;68.20;;;;;;4959985;28;20067;-81
2021/04/25 11:57:56;;;;;;;4.75;2.60;;;22.90;67.80;;;;;;4961152;28;20047;-78
2021/04/25 12:00:25;;;;;;;4.50;2.60;;;23.00;68.00;;;;;;4943000;28;20043;-83
2021/04/25 12:02:56;;;;;;;5.40;2.65;;;23.00;67.50;;;;;;4957246;28;20043;-77
2021/04/25 12:05:26;;;;;;;3.65;2.15;;;23.00;66.70;;;;;;4963159;28;20070;-77
2021/04/25 12:07:56;;;;;;;4.03;2.20;;;23.10;66.60;;;;;;4944379;28;20050;-77
2021/04/25 12:10:29;;;;;;;4.40;2.28;;;23.00;65.50;;;;;;4960848;28;20047;-77
2021/04/25 12:13:02;;;;;;;3.20;2.00;;;23.10;66.40;;;;;;4959426;28;20043;-77
2021/04/25 12:15:31;;;;;;;5.00;2.10;;;23.10;67.10;;;;;;4944792;28;20047;-78
2021/04/25 12:18:00;;;;;;;2.78;2.13;;;23.10;66.10;;;;;;4961668;28;20046;-81
2021/04/25 12:20:28;;;;;;;3.63;2.22;;;23.10;66.10;;;;;;4963390;28;20170;-77
2021/04/25 12:22:56;;;;;;;2.95;1.70;;;23.20;68.20;;;;;;4947862;28;20413;-79
2021/04/25 12:25:27;;;;;;;3.92;2.50;;;23.40;67.70;;;;;;4965025;28;20050;-78
2021/04/25 12:27:56;;;;;;;2.47;1.90;;;23.40;66.80;;;;;;4965432;28;20042;-81
2021/04/25 12:30:27;;;;;;;4.57;1.75;;;23.40;66.80;;;;;;4962520;28;20828;-77
2021/04/25 12:33:03;;;;;;;3.22;2.05;;;23.50;67.40;;;;;;4934650;28;20047;-78
2021/04/25 12:35:35;;;;;;;3.83;1.88;;;23.30;66.30;;;;;;4967841;28;20044;-77
2021/04/25 12:38:25;;;;;;;4.40;1.98;;;23.10;66.20;;;;;;4963309;28;20538;-77
2021/04/25 12:41:04;;;;;;;4.22;1.80;;;23.10;66.40;;;;;;4962752;28;20075;-77
2021/04/25 12:43:34;;;;;;;2.92;1.98;;;23.40;66.60;;;;;;4946748;28;20046;-77
2021/04/25 12:46:12;;;;;;;4.93;1.90;;;23.20;66.30;;;;;;4965874;28;20157;-78
2021/04/25 12:48:42;;;;;;;3.97;1.70;;;23.20;66.40;;;;;;4960488;28;20054;-77
2021/04/25 12:51:13;;;;;;;6.00;1.70;;;23.30;65.70;;;;;;4962880;28;20043;-77
2021/04/25 12:53:44;;;;;;;2.33;1.58;;;23.40;66.30;;;;;;4961514;28;20042;-77
2021/04/25 12:56:20;;;;;;;5.18;1.60;;;23.30;65.70;;;;;;4960839;28;20085;-77
2021/04/25 12:59:16;;;;;;;4.03;2.50;;;23.20;65.70;;;;;;4958143;28;20058;-79